Time;durP1;ratioP1;P1;durP2;ratioP2;P2;SDS_P1;SDS_P2;PMS_P1;PMS_P2;Temp;Humidity;BMP_temperature;BMP_pressure;BME280_temperature;BME280_humidity;BME280_pressure;Samples;Min_cycle;Max_cycle;Signal;HPM_P1;HPM_P2
2023/07/10 00:01:39;;;;;;;11.45;4.97;;;;;;;;;;5056317;28;20033;-70
2023/07/10 00:04:14;;;;;;;12.63;5.65;;;;;;;;;;5055827;28;20036;-70
2023/07/10 00:06:39;;;;;;;13.38;4.93;;;;;;;;;;5057352;28;20033;-72
2023/07/10 00:09:05;;;;;;;7.80;5.03;;;;;;;;;;5040711;28;20032;-71
2023/07/10 00:11:31;;;;;;;20.10;5.30;;;;;;;;;;5039673;28;20036;-72
2023/07/10 00:13:57;;;;;;;9.77;5.15;;;;;;;;;;5040977;28;20696;-72
2023/07/10 00:16:24;;;;;;;10.95;5.50;;;;;;;;;;5026895;28;20041;-72
2023/07/10 00:18:50;;;;;;;8.27;5.15;;;;;;;;;;5053425;28;20029;-71
2023/07/10 00:21:20;;;;;;;8.88;4.88;;;;;;;;;;5056937;28;20250;-71
2023/07/10 00:23:46;;;;;;;17.13;5.93;;;;;;;;;;5046247;28;20025;-72
2023/07/10 00:26:24;;;;;;;8.93;4.82;;;;;;;;;;5053221;28;20041;-71
2023/07/10 00:28:55;;;;;;;11.73;5.10;;;;;;;;;;5031579;28;20053;-71
2023/07/10 00:31:21;;;;;;;9.32;5.45;;;;;;;;;;5035666;28;20105;-73
2023/07/10 00:33:47;;;;;;;17.27;5.93;;;;;;;;;;5029983;28;20048;-71
2023/07/10 00:36:42;;;;;;;7.55;4.70;;;;;;;;;;5037726;28;20414;-72
2023/07/10 00:39:26;;;;;;;8.90;5.22;;;;;;;;;;5044831;28;20116;-73
2023/07/10 00:41:58;;;;;;;16.17;6.13;;;;;;;;;;5056812;28;20056;-73
2023/07/10 00:44:33;;;;;;;19.02;5.45;;;;;;;;;;5032637;28;20032;-73
2023/07/10 00:47:14;;;;;;;9.82;4.78;;;;;;;;;;5037677;28;20032;-71
2023/07/10 00:49:55;;;;;;;12.35;5.13;;;;;;;;;;5050245;28;20071;-70
2023/07/10 00:52:26;;;;;;;10.95;4.90;;;;;;;;;;5056083;28;20142;-72
2023/07/10 00:54:54;;;;;;;11.70;6.05;;;;;;;;;;5039026;28;20033;-72
2023/07/10 00:57:24;;;;;;;7.32;4.60;;;;;;;;;;5047896;28;20175;-73
2023/07/10 00:59:51;;;;;;;7.88;4.60;;;;;;;;;;5043196;28;20033;-73
2023/07/10 01:02:19;;;;;;;9.10;4.78;;;;;;;;;;5004632;28;20037;-73
2023/07/10 01:04:49;;;;;;;9.48;4.57;;;;;;;;;;5046261;28;20049;-70
2023/07/10 01:07:16;;;;;;;9.65;4.88;;;;;;;;;;5054729;28;20044;-69
2023/07/10 01:09:49;;;;;;;13.65;5.78;;;;;;;;;;5036095;28;20471;-69
2023/07/10 01:12:14;;;;;;;12.18;5.13;;;;;;;;;;5019664;28;20494;-70
2023/07/10 01:14:40;;;;;;;6.18;4.47;;;;;;;;;;5043506;28;20021;-70
2023/07/10 01:17:07;;;;;;;11.88;5.00;;;;;;;;;;5021825;28;20167;-69
2023/07/10 01:19:36;;;;;;;10.75;4.65;;;;;;;;;;5025094;28;20132;-69
2023/07/10 01:22:03;;;;;;;11.02;4.63;;;;;;;;;;5051912;28;20076;-69
2023/07/10 01:24:29;;;;;;;8.45;4.32;;;;;;;;;;5053259;28;20090;-69
2023/07/10 01:26:56;;;;;;;10.40;5.00;;;;;;;;;;5046610;28;20042;-69
2023/07/10 01:29:26;;;;;;;9.30;4.95;;;;;;;;;;5057451;28;20029;-69
2023/07/10 01:31:54;;;;;;;8.00;4.67;;;;;;;;;;5054257;28;20072;-70
2023/07/10 01:34:23;;;;;;;8.95;4.63;;;;;;;;;;5056262;28;20082;-70
2023/07/10 01:36:50;;;;;;;10.95;5.25;;;;;;;;;;5036478;28;20128;-69
2023/07/10 01:39:15;;;;;;;13.65;5.03;;;;;;;;;;5023246;28;20024;-69
2023/07/10 01:41:44;;;;;;;9.13;4.80;;;;;;;;;;5060752;28;20047;-68
2023/07/10 01:44:29;;;;;;;7.70;4.82;;;;;;;;;;5045992;28;20079;-69
2023/07/10 01:46:57;;;;;;;10.93;4.63;;;;;;;;;;5049970;28;20545;-69
2023/07/10 01:49:38;;;;;;;8.30;4.63;;;;;;;;;;5058082;28;20502;-69
2023/07/10 01:52:07;;;;;;;11.23;5.13;;;;;;;;;;5034449;28;20139;-69
2023/07/10 01:54:33;;;;;;;11.00;4.38;;;;;;;;;;5053780;28;20452;-68
2023/07/10 01:56:59;;;;;;;7.65;4.57;;;;;;;;;;5048740;28;20116;-69
2023/07/10 01:59:24;;;;;;;12.48;4.97;;;;;;;;;;5064289;28;20039;-67
2023/07/10 02:01:50;;;;;;;10.57;4.90;;;;;;;;;;5021115;28;20120;-69
2023/07/10 02:04:15;;;;;;;8.63;5.18;;;;;;;;;;5047159;28;20112;-69
2023/07/10 02:06:41;;;;;;;13.57;5.90;;;;;;;;;;5027791;28;20090;-69
2023/07/10 02:09:07;;;;;;;12.55;5.05;;;;;;;;;;5036813;28;20039;-69
2023/07/10 02:11:37;;;;;;;11.32;5.07;;;;;;;;;;5053420;28;20044;-68
2023/07/10 02:14:03;;;;;;;10.00;5.30;;;;;;;;;;5048058;28;20064;-67
2023/07/10 02:16:29;;;;;;;12.25;5.15;;;;;;;;;;5025988;28;20060;-68
2023/07/10 02:18:54;;;;;;;12.13;5.05;;;;;;;;;;5029883;28;20033;-69
2023/07/10 02:21:20;;;;;;;8.23;5.03;;;;;;;;;;5029309;28;20043;-71
2023/07/10 02:23:47;;;;;;;10.95;5.60;;;;;;;;;;5030231;28;20041;-69
2023/07/10 02:26:14;;;;;;;9.30;5.10;;;;;;;;;;5036276;28;20031;-70
2023/07/10 02:28:39;;;;;;;14.25;5.82;;;;;;;;;;5050208;28;20055;-71
2023/07/10 02:31:05;;;;;;;8.50;5.13;;;;;;;;;;5045650;28;20063;-71
2023/07/10 02:33:31;;;;;;;10.25;5.43;;;;;;;;;;5054562;28;20029;-71
2023/07/10 02:35:56;;;;;;;11.95;4.95;;;;;;;;;;5043474;28;20445;-70
2023/07/10 02:38:22;;;;;;;9.50;6.00;;;;;;;;;;5026704;28;20037;-71
2023/07/10 02:40:47;;;;;;;12.82;5.32;;;;;;;;;;5034906;28;20040;-70
2023/07/10 02:43:13;;;;;;;8.93;5.20;;;;;;;;;;5033095;28;20037;-72
2023/07/10 02:45:38;;;;;;;9.30;5.13;;;;;;;;;;5049810;28;20175;-73
2023/07/10 02:48:04;;;;;;;7.30;4.93;;;;;;;;;;5051089;28;20025;-72
2023/07/10 02:50:29;;;;;;;12.50;6.05;;;;;;;;;;5054769;28;21196;-73
2023/07/10 02:52:55;;;;;;;11.68;6.38;;;;;;;;;;5047648;28;20022;-73
2023/07/10 02:55:20;;;;;;;9.27;5.63;;;;;;;;;;5054922;28;20412;-71
2023/07/10 02:57:46;;;;;;;11.52;6.25;;;;;;;;;;5051635;28;20032;-72
2023/07/10 03:00:12;;;;;;;7.13;4.88;;;;;;;;;;5016487;28;20052;-72
2023/07/10 03:02:37;;;;;;;8.32;5.30;;;;;;;;;;5046541;28;20080;-72
2023/07/10 03:05:03;;;;;;;7.72;5.15;;;;;;;;;;5026554;28;20029;-73
2023/07/10 03:07:30;;;;;;;9.27;5.90;;;;;;;;;;5052050;28;20360;-72
2023/07/10 03:09:56;;;;;;;8.60;5.25;;;;;;;;;;5054510;28;20094;-72
2023/07/10 03:12:21;;;;;;;11.88;5.65;;;;;;;;;;5054640;28;20103;-72
2023/07/10 03:14:50;;;;;;;8.13;5.25;;;;;;;;;;5041662;28;20033;-71
2023/07/10 03:17:16;;;;;;;9.75;5.72;;;;;;;;;;5028991;28;20048;-73
2023/07/10 03:19:42;;;;;;;12.77;4.97;;;;;;;;;;5035974;28;20035;-70
2023/07/10 03:22:07;;;;;;;7.43;4.75;;;;;;;;;;5039312;28;20466;-71
2023/07/10 03:24:33;;;;;;;12.52;5.95;;;;;;;;;;5047028;28;20027;-71
2023/07/10 03:26:58;;;;;;;7.80;5.55;;;;;;;;;;5052312;28;20416;-70
2023/07/10 03:29:24;;;;;;;7.93;5.57;;;;;;;;;;5058364;28;20025;-71
2023/07/10 03:31:49;;;;;;;12.18;5.90;;;;;;;;;;5054816;28;20040;-70
2023/07/10 03:34:15;;;;;;;9.77;5.32;;;;;;;;;;5020166;28;20036;-70
2023/07/10 03:36:41;;;;;;;15.80;5.45;;;;;;;;;;5053430;28;20176;-71
2023/07/10 03:39:07;;;;;;;11.02;5.40;;;;;;;;;;5036638;28;20783;-71
2023/07/10 03:41:34;;;;;;;10.05;6.10;;;;;;;;;;5034610;28;20037;-71
2023/07/10 03:44:00;;;;;;;9.35;5.63;;;;;;;;;;5054392;28;20060;-69
2023/07/10 03:46:25;;;;;;;7.55;5.55;;;;;;;;;;5019393;28;20441;-71
2023/07/10 03:48:51;;;;;;;17.73;5.57;;;;;;;;;;5038600;28;20141;-70
2023/07/10 03:51:17;;;;;;;10.07;4.93;;;;;;;;;;5022596;28;20132;-72
2023/07/10 03:53:43;;;;;;;8.57;5.47;;;;;;;;;;5051118;28;21164;-71
2023/07/10 03:56:09;;;;;;;11.13;5.55;;;;;;;;;;5046887;28;20641;-72
2023/07/10 03:58:40;;;;;;;10.25;5.65;;;;;;;;;;5054945;28;20032;-71
2023/07/10 04:01:07;;;;;;;9.90;5.43;;;;;;;;;;5026867;28;20128;-72
2023/07/10 04:03:34;;;;;;;14.52;5.43;;;;;;;;;;5037858;28;20021;-71
2023/07/10 04:06:00;;;;;;;9.43;5.57;;;;;;;;;;5045622;28;20030;-71
2023/07/10 04:08:28;;;;;;;8.07;5.57;;;;;;;;;;5041465;28;20025;-71
2023/07/10 04:10:56;;;;;;;12.65;6.20;;;;;;;;;;5057870;28;20043;-71
2023/07/10 04:13:23;;;;;;;11.70;5.68;;;;;;;;;;5025389;28;20107;-72
2023/07/10 04:16:03;;;;;;;7.55;5.57;;;;;;;;;;5020271;28;20044;-72
2023/07/10 04:18:31;;;;;;;11.45;6.28;;;;;;;;;;5057658;28;20025;-73
2023/07/10 04:20:58;;;;;;;10.57;5.55;;;;;;;;;;5037828;28;20060;-72
2023/07/10 04:23:23;;;;;;;10.63;6.00;;;;;;;;;;5042276;28;20541;-73
2023/07/10 04:25:49;;;;;;;10.52;5.70;;;;;;;;;;5040438;28;20090;-72
2023/07/10 04:28:14;;;;;;;10.18;5.25;;;;;;;;;;5026671;28;20025;-72
2023/07/10 04:30:39;;;;;;;9.05;5.70;;;;;;;;;;5052367;28;20586;-72
2023/07/10 04:33:08;;;;;;;16.48;6.15;;;;;;;;;;5020951;28;20115;-71
2023/07/10 04:35:34;;;;;;;10.07;5.72;;;;;;;;;;5045300;28;20091;-71
2023/07/10 04:37:59;;;;;;;8.82;5.65;;;;;;;;;;5024646;28;20033;-71
2023/07/10 04:40:24;;;;;;;9.13;5.22;;;;;;;;;;5048813;28;20033;-72
2023/07/10 04:42:51;;;;;;;8.20;5.18;;;;;;;;;;5033335;28;20087;-71
2023/07/10 04:45:17;;;;;;;12.35;5.70;;;;;;;;;;5038791;28;20044;-72
2023/07/10 04:47:42;;;;;;;12.38;5.75;;;;;;;;;;5059875;28;20029;-73
2023/07/10 04:50:08;;;;;;;9.82;5.28;;;;;;;;;;5018570;28;20560;-72
2023/07/10 04:52:34;;;;;;;6.78;5.30;;;;;;;;;;5057301;28;20025;-73
2023/07/10 04:54:59;;;;;;;9.90;5.65;;;;;;;;;;5050453;28;20021;-72
2023/07/10 04:57:25;;;;;;;7.53;5.25;;;;;;;;;;5040016;28;20033;-72
2023/07/10 04:59:50;;;;;;;9.25;5.65;;;;;;;;;;5044762;28;20052;-72
2023/07/10 05:02:16;;;;;;;9.52;5.80;;;;;;;;;;5036662;28;20049;-73
2023/07/10 05:04:41;;;;;;;8.32;5.32;;;;;;;;;;5030655;28;20593;-73
2023/07/10 05:07:06;;;;;;;20.58;6.40;;;;;;;;;;5037484;28;20041;-72
2023/07/10 05:09:32;;;;;;;14.27;5.85;;;;;;;;;;5055037;28;20083;-73
2023/07/10 05:11:58;;;;;;;13.30;5.78;;;;;;;;;;5030057;28;20040;-73
2023/07/10 05:14:24;;;;;;;7.20;5.13;;;;;;;;;;5034627;28;20117;-72
2023/07/10 05:16:50;;;;;;;22.50;5.60;;;;;;;;;;5038073;28;20037;-72
2023/07/10 05:19:15;;;;;;;13.90;5.63;;;;;;;;;;5034598;28;20036;-74
2023/07/10 05:21:41;;;;;;;15.40;5.57;;;;;;;;;;5037713;28;20159;-71
2023/07/10 05:24:06;;;;;;;15.85;6.90;;;;;;;;;;5050163;28;20394;-70
2023/07/10 05:26:31;;;;;;;17.05;6.32;;;;;;;;;;5021872;28;20037;-71
2023/07/10 05:28:57;;;;;;;11.02;5.80;;;;;;;;;;5045433;28;20021;-73
2023/07/10 05:31:22;;;;;;;14.65;6.40;;;;;;;;;;5056493;28;20037;-71
2023/07/10 05:33:49;;;;;;;9.50;5.20;;;;;;;;;;5028239;28;20028;-74
2023/07/10 05:36:16;;;;;;;13.23;5.50;;;;;;;;;;5047534;28;20068;-73
2023/07/10 05:38:41;;;;;;;14.57;6.03;;;;;;;;;;5050615;28;20037;-73
2023/07/10 05:41:08;;;;;;;12.13;5.30;;;;;;;;;;5043041;28;20045;-72
2023/07/10 05:43:34;;;;;;;8.43;5.10;;;;;;;;;;5041540;28;20025;-72
2023/07/10 05:46:00;;;;;;;14.13;5.55;;;;;;;;;;5036093;28;20025;-71
2023/07/10 05:48:27;;;;;;;12.45;5.38;;;;;;;;;;5031459;28;20037;-71
2023/07/10 05:50:53;;;;;;;11.35;5.53;;;;;;;;;;5050676;28;20049;-72
2023/07/10 05:53:19;;;;;;;12.82;5.60;;;;;;;;;;5047194;28;20033;-72
2023/07/10 05:55:49;;;;;;;8.55;5.35;;;;;;;;;;5046873;28;20045;-72
2023/07/10 05:58:16;;;;;;;10.98;5.85;;;;;;;;;;5046155;28;20029;-69
2023/07/10 06:00:42;;;;;;;10.90;5.55;;;;;;;;;;5030216;28;20057;-69
2023/07/10 06:03:08;;;;;;;11.02;5.60;;;;;;;;;;5051517;28;20031;-70
2023/07/10 06:05:34;;;;;;;16.67;5.43;;;;;;;;;;5034907;28;20041;-72
2023/07/10 06:07:59;;;;;;;15.68;6.07;;;;;;;;;;5052594;28;20029;-72
2023/07/10 06:10:25;;;;;;;7.28;5.20;;;;;;;;;;5032085;28;20100;-70
2023/07/10 06:12:50;;;;;;;14.93;5.22;;;;;;;;;;5045038;28;20477;-71
2023/07/10 06:15:16;;;;;;;14.43;5.60;;;;;;;;;;5033261;28;20043;-70
2023/07/10 06:17:41;;;;;;;10.10;5.20;;;;;;;;;;5036593;28;20079;-71
2023/07/10 06:20:07;;;;;;;11.55;5.72;;;;;;;;;;5037908;28;20070;-71
2023/07/10 06:22:32;;;;;;;13.23;5.30;;;;;;;;;;5029835;28;20060;-71
2023/07/10 06:24:58;;;;;;;10.48;5.28;;;;;;;;;;5055063;28;20036;-70
2023/07/10 06:27:23;;;;;;;17.73;5.35;;;;;;;;;;5036144;28;20096;-70
2023/07/10 06:29:51;;;;;;;11.02;5.47;;;;;;;;;;5024968;28;20108;-70
2023/07/10 06:32:17;;;;;;;15.20;5.28;;;;;;;;;;5043138;28;20070;-73
2023/07/10 06:34:43;;;;;;;11.05;6.00;;;;;;;;;;5050514;28;20429;-73
2023/07/10 06:37:08;;;;;;;8.32;5.25;;;;;;;;;;5024022;28;20095;-73
2023/07/10 06:39:33;;;;;;;12.02;5.43;;;;;;;;;;5038510;28;20028;-74
2023/07/10 06:41:59;;;;;;;12.38;5.25;;;;;;;;;;4995894;28;20510;-74
2023/07/10 06:44:25;;;;;;;7.95;5.13;;;;;;;;;;5054294;28;20116;-72
2023/07/10 06:46:50;;;;;;;10.98;5.10;;;;;;;;;;5015421;28;20036;-72
2023/07/10 06:49:15;;;;;;;10.02;5.38;;;;;;;;;;5023596;28;20025;-74
2023/07/10 06:51:41;;;;;;;10.20;5.57;;;;;;;;;;5018307;28;20037;-74
2023/07/10 06:54:06;;;;;;;13.23;5.20;;;;;;;;;;5037442;28;20120;-74
2023/07/10 06:56:32;;;;;;;9.93;5.03;;;;;;;;;;5034473;28;20044;-73
2023/07/10 06:58:58;;;;;;;9.23;4.95;;;;;;;;;;5031746;28;20040;-73
2023/07/10 07:01:24;;;;;;;10.18;5.50;;;;;;;;;;5052125;28;20124;-73
2023/07/10 07:03:49;;;;;;;9.18;4.88;;;;;;;;;;5048581;28;20033;-73
2023/07/10 07:06:15;;;;;;;9.98;5.88;;;;;;;;;;5055362;28;20033;-73
2023/07/10 07:08:51;;;;;;;10.85;5.22;;;;;;;;;;5006801;28;20032;-73
2023/07/10 07:11:17;;;;;;;9.65;5.55;;;;;;;;;;5048643;28;20048;-73
2023/07/10 07:13:43;;;;;;;10.55;5.25;;;;;;;;;;5018684;28;20025;-73
2023/07/10 07:16:09;;;;;;;11.05;5.45;;;;;;;;;;5012561;28;20049;-74
2023/07/10 07:18:34;;;;;;;9.45;5.25;;;;;;;;;;5007399;28;20431;-73
2023/07/10 07:21:00;;;;;;;12.65;5.68;;;;;;;;;;5007266;28;20038;-74
2023/07/10 07:23:26;;;;;;;10.00;5.43;;;;;;;;;;5018791;28;20060;-73
2023/07/10 07:25:54;;;;;;;8.43;5.50;;;;;;;;;;5012653;28;20030;-73
2023/07/10 07:28:19;;;;;;;12.45;5.68;;;;;;;;;;5017829;28;20029;-74
2023/07/10 07:30:48;;;;;;;8.52;5.38;;;;;;;;;;5013555;28;20038;-74
2023/07/10 07:33:15;;;;;;;7.07;4.72;;;;;;;;;;4999355;28;20116;-74
2023/07/10 07:35:40;;;;;;;7.20;4.50;;;;;;;;;;5008980;28;20049;-73
2023/07/10 07:38:06;;;;;;;10.57;4.90;;;;;;;;;;5012543;28;20036;-74
2023/07/10 07:40:32;;;;;;;16.85;5.43;;;;;;;;;;5032028;28;20038;-74
2023/07/10 07:42:57;;;;;;;12.20;5.32;;;;;;;;;;5009953;28;20076;-74
2023/07/10 07:45:22;;;;;;;10.02;4.90;;;;;;;;;;5033163;28;20041;-74
2023/07/10 07:47:48;;;;;;;7.78;4.97;;;;;;;;;;5011481;28;20025;-74
2023/07/10 07:50:13;;;;;;;11.73;5.32;;;;;;;;;;5007649;28;20038;-74
2023/07/10 07:52:39;;;;;;;16.40;5.07;;;;;;;;;;5011757;28;20030;-74
2023/07/10 07:55:05;;;;;;;11.13;5.72;;;;;;;;;;5028220;28;20038;-74
2023/07/10 07:57:31;;;;;;;9.43;5.82;;;;;;;;;;5018556;28;20044;-73
2023/07/10 07:59:58;;;;;;;13.98;6.10;;;;;;;;;;5030671;28;20129;-73
2023/07/10 08:02:23;;;;;;;10.27;6.35;;;;;;;;;;5013756;28;20029;-74
2023/07/10 08:04:49;;;;;;;14.35;6.60;;;;;;;;;;4993183;28;20030;-74
2023/07/10 08:07:14;;;;;;;21.17;6.90;;;;;;;;;;5013357;28;20034;-76
2023/07/10 08:09:40;;;;;;;15.93;5.55;;;;;;;;;;5014331;28;20400;-73
2023/07/10 08:12:06;;;;;;;17.85;6.40;;;;;;;;;;5021719;28;20076;-75
2023/07/10 08:14:31;;;;;;;17.95;6.50;;;;;;;;;;5013336;28;20030;-74
2023/07/10 08:16:57;;;;;;;13.98;6.85;;;;;;;;;;5042053;28;20180;-76
2023/07/10 08:19:22;;;;;;;17.08;7.25;;;;;;;;;;5050478;28;20024;-74
2023/07/10 08:21:47;;;;;;;12.98;6.55;;;;;;;;;;5030004;28;20033;-74
2023/07/10 08:24:14;;;;;;;10.27;5.55;;;;;;;;;;5022564;28;20029;-74
2023/07/10 08:26:39;;;;;;;12.98;5.80;;;;;;;;;;5042049;28;20044;-74
2023/07/10 08:29:25;;;;;;;9.25;5.85;;;;;;;;;;5040963;28;20470;-73
2023/07/10 08:31:59;;;;;;;14.98;6.00;;;;;;;;;;5035775;28;20042;-73
2023/07/10 08:34:27;;;;;;;14.65;6.22;;;;;;;;;;5038689;28;20032;-73
2023/07/10 08:36:53;;;;;;;16.38;6.65;;;;;;;;;;5031501;28;20041;-75
2023/07/10 08:39:20;;;;;;;12.25;5.93;;;;;;;;;;5061692;28;20108;-73
2023/07/10 08:41:53;;;;;;;13.18;6.95;;;;;;;;;;5016777;28;20033;-74
2023/07/10 08:44:20;;;;;;;13.88;7.05;;;;;;;;;;5047981;28;20033;-74
2023/07/10 08:46:46;;;;;;;17.60;6.75;;;;;;;;;;5043508;28;20025;-73
2023/07/10 08:49:35;;;;;;;12.05;6.43;;;;;;;;;;5040205;28;20029;-73
2023/07/10 08:52:10;;;;;;;20.30;6.82;;;;;;;;;;5044510;28;20033;-73
2023/07/10 08:54:35;;;;;;;22.52;7.60;;;;;;;;;;5051899;28;20025;-75
2023/07/10 08:57:26;;;;;;;19.40;7.50;;;;;;;;;;5056939;28;20030;-73
2023/07/10 09:00:14;;;;;;;14.65;6.55;;;;;;;;;;5055873;28;20073;-73
2023/07/10 09:03:04;;;;;;;11.48;5.68;;;;;;;;;;5037135;28;20116;-74
2023/07/10 09:05:32;;;;;;;18.73;5.88;;;;;;;;;;5030216;28;20722;-73
2023/07/10 09:08:03;;;;;;;15.95;6.47;;;;;;;;;;5053829;28;20063;-74
2023/07/10 09:10:46;;;;;;;19.02;6.18;;;;;;;;;;5057089;28;20111;-72
2023/07/10 09:13:16;;;;;;;12.35;6.20;;;;;;;;;;5037771;28;20450;-73
2023/07/10 09:15:50;;;;;;;10.02;6.10;;;;;;;;;;5038909;28;20079;-73
2023/07/10 09:18:23;;;;;;;14.15;6.03;;;;;;;;;;5040868;28;20032;-74
2023/07/10 09:20:52;;;;;;;16.33;5.78;;;;;;;;;;5036926;28;20045;-73
2023/07/10 09:23:20;;;;;;;15.50;5.82;;;;;;;;;;5041822;28;20038;-72
2023/07/10 09:25:53;;;;;;;13.32;5.85;;;;;;;;;;5050034;28;20095;-72
2023/07/10 09:28:19;;;;;;;16.23;6.13;;;;;;;;;;5048010;28;20109;-73
2023/07/10 09:30:58;;;;;;;9.85;5.25;;;;;;;;;;5023361;28;20123;-73
2023/07/10 09:33:37;;;;;;;15.25;5.32;;;;;;;;;;5058574;28;20029;-72
2023/07/10 09:36:15;;;;;;;10.60;5.72;;;;;;;;;;5044548;28;20041;-72
2023/07/10 09:38:44;;;;;;;15.15;4.97;;;;;;;;;;5038822;28;20059;-72
2023/07/10 09:41:18;;;;;;;12.80;5.65;;;;;;;;;;5056214;28;20051;-72
2023/07/10 09:43:50;;;;;;;19.25;4.93;;;;;;;;;;5046306;28;20032;-72
2023/07/10 09:46:15;;;;;;;7.65;4.35;;;;;;;;;;5058666;28;20032;-72
2023/07/10 09:48:41;;;;;;;8.15;4.78;;;;;;;;;;5044526;28;20018;-73
2023/07/10 09:51:09;;;;;;;13.70;5.10;;;;;;;;;;5037111;28;20498;-72
2023/07/10 09:53:48;;;;;;;13.30;4.90;;;;;;;;;;5052171;28;20033;-74
2023/07/10 09:56:26;;;;;;;6.97;5.13;;;;;;;;;;5050019;28;20033;-72
2023/07/10 09:58:55;;;;;;;14.80;5.45;;;;;;;;;;5038108;28;20056;-73
2023/07/10 10:01:26;;;;;;;14.80;5.35;;;;;;;;;;5039379;28;20125;-72
2023/07/10 10:03:54;;;;;;;12.90;5.03;;;;;;;;;;5030115;28;20047;-71
2023/07/10 10:06:25;;;;;;;12.45;5.10;;;;;;;;;;5036592;28;20533;-73
2023/07/10 10:08:51;;;;;;;13.30;5.65;;;;;;;;;;5058199;28;20031;-73
2023/07/10 10:11:17;;;;;;;16.38;5.75;;;;;;;;;;5051359;28;20047;-73
2023/07/10 10:13:57;;;;;;;13.43;5.07;;;;;;;;;;5045279;28;20033;-72
2023/07/10 10:16:26;;;;;;;16.05;5.30;;;;;;;;;;5040186;28;20040;-72
2023/07/10 10:19:03;;;;;;;12.15;5.10;;;;;;;;;;5054700;28;20451;-72
2023/07/10 10:21:32;;;;;;;15.05;4.97;;;;;;;;;;5049810;28;20087;-72
2023/07/10 10:24:05;;;;;;;14.27;5.00;;;;;;;;;;5054210;28;20436;-71
2023/07/10 10:26:51;;;;;;;19.05;6.05;;;;;;;;;;5034191;28;20497;-71
2023/07/10 10:29:43;;;;;;;13.68;5.65;;;;;;;;;;5049167;28;20032;-73
2023/07/10 10:32:33;;;;;;;14.63;5.05;;;;;;;;;;5048144;28;20090;-73
2023/07/10 10:35:41;;;;;;;29.88;5.68;;;;;;;;;;5045710;28;20124;-67
2023/07/10 10:38:25;;;;;;;14.05;5.45;;;;;;;;;;5027487;28;20546;-72
2023/07/10 10:41:04;;;;;;;12.57;5.55;;;;;;;;;;5045051;28;20044;-72
2023/07/10 10:43:33;;;;;;;7.63;5.10;;;;;;;;;;5048182;28;20036;-71
2023/07/10 10:46:23;;;;;;;24.40;5.97;;;;;;;;;;5053956;28;20063;-71
2023/07/10 10:49:14;;;;;;;18.38;5.70;;;;;;;;;;5053474;28;20035;-71
2023/07/10 10:51:48;;;;;;;9.70;5.30;;;;;;;;;;5052751;28;20125;-71
2023/07/10 10:54:23;;;;;;;14.60;5.03;;;;;;;;;;5052531;28;20033;-70
2023/07/10 10:57:00;;;;;;;14.35;5.45;;;;;;;;;;5062268;28;20047;-71
2023/07/10 10:59:40;;;;;;;15.30;5.22;;;;;;;;;;5052670;28;20499;-71
2023/07/10 11:02:12;;;;;;;11.43;5.43;;;;;;;;;;5050560;28;20044;-70
2023/07/10 11:04:47;;;;;;;16.63;5.20;;;;;;;;;;5045347;28;20052;-69
2023/07/10 11:07:18;;;;;;;15.75;5.60;;;;;;;;;;5050257;28;20864;-70
2023/07/10 11:09:51;;;;;;;12.50;5.30;;;;;;;;;;5035025;28;20053;-70
2023/07/10 11:12:23;;;;;;;14.18;5.20;;;;;;;;;;5054004;28;20039;-70
2023/07/10 11:14:49;;;;;;;;;;;;;;;;;;5038698;28;20032;-70
2023/07/10 11:17:15;;;;;;;17.13;5.72;;;;;;;;;;5048867;28;19959;-71
2023/07/10 11:19:41;;;;;;;18.33;5.25;;;;;;;;;;5051177;28;20398;-71
2023/07/10 11:22:34;;;;;;;14.10;5.40;;;;;;;;;;5037636;28;20046;-72
2023/07/10 11:25:01;;;;;;;21.38;5.43;;;;;;;;;;5052957;28;20053;-71
2023/07/10 11:27:36;;;;;;;16.70;5.57;;;;;;;;;;5031076;28;20112;-71
2023/07/10 11:30:10;;;;;;;12.95;5.10;;;;;;;;;;5048378;28;20020;-73
2023/07/10 11:32:57;;;;;;;14.55;5.45;;;;;;;;;;5052790;28;20033;-71
2023/07/10 11:35:24;;;;;;;17.38;6.03;;;;;;;;;;5056731;28;20067;-72
2023/07/10 11:37:49;;;;;;;17.05;5.57;;;;;;;;;;5053948;28;20025;-72
2023/07/10 11:40:26;;;;;;;20.10;5.80;;;;;;;;;;5055404;28;20037;-71
2023/07/10 11:42:53;;;;;;;14.48;5.60;;;;;;;;;;5057385;28;20116;-70
2023/07/10 11:45:25;;;;;;;14.60;5.65;;;;;;;;;;5054851;28;20102;-72
2023/07/10 11:47:52;;;;;;;13.43;5.57;;;;;;;;;;5033650;28;20660;-70
2023/07/10 11:50:26;;;;;;;14.90;5.68;;;;;;;;;;5037357;28;20068;-70
2023/07/10 11:53:22;;;;;;;11.57;5.50;;;;;;;;;;5047642;28;20526;-71
2023/07/10 11:56:02;;;;;;;15.23;5.63;;;;;;;;;;5051312;28;20049;-72
2023/07/10 11:58:29;;;;;;;10.75;5.32;;;;;;;;;;5057089;28;20092;-71
2023/07/10 12:01:22;;;;;;;13.82;5.57;;;;;;;;;;5021436;28;20067;-73
2023/07/10 12:03:47;;;;;;;17.65;6.03;;;;;;;;;;5034211;28;20041;-72
2023/07/10 12:06:19;;;;;;;16.42;5.82;;;;;;;;;;5033142;28;20048;-72
2023/07/10 12:08:49;;;;;;;24.33;6.20;;;;;;;;;;5024749;28;20029;-71
2023/07/10 12:11:32;;;;;;;12.40;5.30;;;;;;;;;;5053136;28;20043;-73
2023/07/10 12:14:14;;;;;;;14.50;5.60;;;;;;;;;;5048026;28;20072;-71
2023/07/10 12:17:00;;;;;;;19.98;5.10;;;;;;;;;;5033123;28;20056;-74
2023/07/10 12:19:31;;;;;;;18.73;5.70;;;;;;;;;;5054595;28;20032;-72
2023/07/10 12:22:01;;;;;;;19.90;6.25;;;;;;;;;;5041199;28;20105;-73
2023/07/10 12:24:26;;;;;;;13.27;6.03;;;;;;;;;;5053361;28;20029;-71
2023/07/10 12:26:58;;;;;;;20.85;5.95;;;;;;;;;;5035221;28;20033;-71
2023/07/10 12:29:24;;;;;;;25.67;5.95;;;;;;;;;;5053106;28;20025;-71
2023/07/10 12:31:50;;;;;;;26.92;5.78;;;;;;;;;;5036828;28;20052;-70
2023/07/10 12:34:26;;;;;;;16.42;6.13;;;;;;;;;;5049408;28;20094;-72
2023/07/10 12:36:54;;;;;;;19.45;5.82;;;;;;;;;;5060217;28;20032;-70
2023/07/10 12:39:22;;;;;;;19.77;5.63;;;;;;;;;;5053431;28;20021;-71
2023/07/10 12:41:54;;;;;;;20.52;6.00;;;;;;;;;;5041175;28;20458;-70
2023/07/10 12:44:23;;;;;;;19.05;6.00;;;;;;;;;;5046699;28;20498;-70
2023/07/10 12:47:08;;;;;;;30.30;6.97;;;;;;;;;;5055835;28;20033;-69
2023/07/10 12:49:34;;;;;;;22.48;6.10;;;;;;;;;;5053066;28;20053;-70
2023/07/10 12:52:04;;;;;;;27.88;6.75;;;;;;;;;;5019614;28;20048;-69
2023/07/10 12:54:39;;;;;;;28.75;7.28;;;;;;;;;;5020722;28;20025;-68
2023/07/10 12:57:14;;;;;;;22.33;5.88;;;;;;;;;;5051369;28;20068;-69
2023/07/10 12:59:39;;;;;;;18.65;5.05;;;;;;;;;;5031147;28;20073;-68
2023/07/10 13:02:15;;;;;;;17.27;5.10;;;;;;;;;;5051831;28;20040;-71
2023/07/10 13:04:46;;;;;;;13.35;4.88;;;;;;;;;;5058101;28;20021;-71
2023/07/10 13:07:23;;;;;;;25.52;5.60;;;;;;;;;;5045401;28;20398;-69
2023/07/10 13:09:56;;;;;;;9.52;4.75;;;;;;;;;;5048472;28;20025;-73
2023/07/10 13:12:29;;;;;;;13.13;5.38;;;;;;;;;;5053280;28;20045;-70
2023/07/10 13:14:55;;;;;;;14.07;5.13;;;;;;;;;;5050700;28;20104;-70
2023/07/10 13:17:23;;;;;;;12.48;5.13;;;;;;;;;;5047689;28;20041;-70
2023/07/10 13:19:49;;;;;;;16.23;5.28;;;;;;;;;;5052687;28;20058;-71
2023/07/10 13:22:16;;;;;;;12.52;5.00;;;;;;;;;;5050336;28;20041;-73
2023/07/10 13:24:42;;;;;;;12.77;5.00;;;;;;;;;;5053724;28;20035;-71
2023/07/10 13:27:13;;;;;;;10.75;5.15;;;;;;;;;;5054260;28;20025;-70
2023/07/10 13:29:38;;;;;;;12.68;5.45;;;;;;;;;;5054034;28;20033;-71
2023/07/10 13:32:04;;;;;;;15.70;5.07;;;;;;;;;;5047346;28;20440;-72
2023/07/10 13:34:30;;;;;;;15.73;5.18;;;;;;;;;;5035662;28;20026;-72
2023/07/10 13:36:55;;;;;;;14.18;5.22;;;;;;;;;;5053363;28;20048;-73
2023/07/10 13:39:21;;;;;;;12.00;4.65;;;;;;;;;;5044002;28;20497;-70
2023/07/10 13:41:47;;;;;;;16.80;4.85;;;;;;;;;;5044460;28;20060;-71
2023/07/10 13:44:13;;;;;;;13.55;4.90;;;;;;;;;;5016482;28;20024;-72
2023/07/10 13:46:39;;;;;;;15.25;5.13;;;;;;;;;;5028774;28;20130;-71
2023/07/10 13:49:12;;;;;;;11.73;4.65;;;;;;;;;;5046488;28;20040;-70
2023/07/10 13:51:38;;;;;;;11.95;4.75;;;;;;;;;;5053833;28;20041;-70
2023/07/10 13:54:04;;;;;;;12.50;4.75;;;;;;;;;;5034949;28;20100;-72
2023/07/10 13:56:31;;;;;;;11.35;4.97;;;;;;;;;;5037444;28;20060;-72
2023/07/10 13:58:57;;;;;;;16.70;4.88;;;;;;;;;;5052025;28;20020;-70
2023/07/10 14:01:23;;;;;;;8.35;4.53;;;;;;;;;;5032414;28;20130;-72
2023/07/10 14:03:49;;;;;;;11.48;4.25;;;;;;;;;;5042344;28;20077;-72
2023/07/10 14:06:32;;;;;;;13.45;4.55;;;;;;;;;;5034893;28;20028;-72
2023/07/10 14:09:03;;;;;;;15.85;4.10;;;;;;;;;;5034405;28;20525;-72
2023/07/10 14:11:28;;;;;;;14.00;4.40;;;;;;;;;;5061014;28;20037;-72
2023/07/10 14:13:54;;;;;;;10.07;4.13;;;;;;;;;;5055963;28;20021;-72
2023/07/10 14:16:30;;;;;;;14.07;4.53;;;;;;;;;;5035780;28;20045;-72
2023/07/10 14:18:57;;;;;;;12.23;4.25;;;;;;;;;;5050009;28;20108;-72
2023/07/10 14:21:23;;;;;;;8.60;3.75;;;;;;;;;;5041235;28;20040;-72
2023/07/10 14:23:49;;;;;;;8.80;4.28;;;;;;;;;;5055120;28;20043;-73
2023/07/10 14:26:28;;;;;;;11.40;3.67;;;;;;;;;;5030201;28;20029;-72
2023/07/10 14:28:58;;;;;;;10.52;4.30;;;;;;;;;;5048753;28;20043;-71
2023/07/10 14:31:25;;;;;;;8.60;3.95;;;;;;;;;;5039504;28;20041;-71
2023/07/10 14:33:51;;;;;;;12.43;3.78;;;;;;;;;;5053604;28;20062;-72
2023/07/10 14:36:25;;;;;;;6.88;4.05;;;;;;;;;;5038279;28;20140;-72
2023/07/10 14:38:50;;;;;;;6.28;3.65;;;;;;;;;;5047408;28;20032;-71
2023/07/10 14:41:22;;;;;;;9.73;4.03;;;;;;;;;;5038271;28;20045;-72
2023/07/10 14:43:48;;;;;;;8.98;3.58;;;;;;;;;;5055185;28;20037;-71
2023/07/10 14:46:25;;;;;;;13.75;4.05;;;;;;;;;;5050952;28;20630;-72